Time;durP1;ratioP1;P1;durP2;ratioP2;P2;SDS_P1;SDS_P2;PMS_P1;PMS_P2;Temp;Humidity;BMP_temperature;BMP_pressure;BME280_temperature;BME280_humidity;BME280_pressure;Samples;Min_cycle;Max_cycle;Signal;HPM_P1;HPM_P2
2022/12/20 00:02:10;;;;;;;5.50;5.00;;;;;;;;;;4955033;28;20446;-65
2022/12/20 00:04:37;;;;;;;7.90;4.77;;;;;;;;;;4954029;28;20602;-65
2022/12/20 00:07:05;;;;;;;5.77;4.60;;;;;;;;;;4954946;28;20882;-65
2022/12/20 00:09:32;;;;;;;6.93;4.73;;;;;;;;;;4954883;28;20543;-65
2022/12/20 00:11:59;;;;;;;6.20;4.93;;;;;;;;;;4954543;28;20451;-65
2022/12/20 00:14:26;;;;;;;8.43;4.40;;;;;;;;;;4954410;28;20461;-65
2022/12/20 00:16:55;;;;;;;5.80;4.23;;;;;;;;;;4954661;28;20458;-64
2022/12/20 00:19:22;;;;;;;4.50;4.10;;;;;;;;;;4954313;28;20466;-64
2022/12/20 00:21:49;;;;;;;5.23;4.20;;;;;;;;;;4954653;28;20438;-64
2022/12/20 00:24:16;;;;;;;5.33;4.83;;;;;;;;;;4954652;28;20482;-64
2022/12/20 00:26:43;;;;;;;4.83;4.43;;;;;;;;;;4955228;28;20935;-65
2022/12/20 00:29:11;;;;;;;8.17;4.87;;;;;;;;;;4958132;28;20442;-65
2022/12/20 00:31:38;;;;;;;5.87;4.30;;;;;;;;;;4958209;28;20630;-65
2022/12/20 00:34:07;;;;;;;5.00;4.30;;;;;;;;;;4958178;28;20457;-65
2022/12/20 00:36:34;;;;;;;4.80;4.37;;;;;;;;;;4957914;28;20456;-64
2022/12/20 00:39:02;;;;;;;5.20;4.00;;;;;;;;;;4958011;28;20456;-65
2022/12/20 00:41:31;;;;;;;6.93;4.50;;;;;;;;;;4957852;28;20441;-64
2022/12/20 00:43:58;;;;;;;7.73;4.20;;;;;;;;;;4957881;28;20482;-64
2022/12/20 00:46:26;;;;;;;5.23;3.93;;;;;;;;;;4957982;28;20445;-64
2022/12/20 00:48:54;;;;;;;5.57;4.27;;;;;;;;;;4971746;28;20480;-64
2022/12/20 00:51:24;;;;;;;5.33;4.03;;;;;;;;;;4976708;28;20477;-64
2022/12/20 00:53:51;;;;;;;4.87;4.43;;;;;;;;;;4977287;28;20450;-65
2022/12/20 00:56:19;;;;;;;7.30;4.77;;;;;;;;;;4976993;28;20473;-64
2022/12/20 00:58:46;;;;;;;4.00;3.70;;;;;;;;;;4976545;28;20455;-64
2022/12/20 01:01:18;;;;;;;5.57;4.17;;;;;;;;;;4977174;28;20443;-65
2022/12/20 01:03:45;;;;;;;5.83;4.10;;;;;;;;;;4976760;28;20516;-65
2022/12/20 01:06:13;;;;;;;6.63;4.70;;;;;;;;;;4976574;28;20437;-64
2022/12/20 01:08:41;;;;;;;5.80;4.07;;;;;;;;;;4976358;28;20458;-64
2022/12/20 01:11:10;;;;;;;7.03;4.77;;;;;;;;;;4976359;28;20456;-64
2022/12/20 01:13:38;;;;;;;4.90;4.40;;;;;;;;;;4976490;28;20477;-64
2022/12/20 01:16:06;;;;;;;7.27;4.77;;;;;;;;;;4976819;28;20442;-64
2022/12/20 01:18:33;;;;;;;6.40;4.07;;;;;;;;;;4976775;28;20533;-64
2022/12/20 01:21:04;;;;;;;4.23;3.83;;;;;;;;;;4976536;28;20451;-65
2022/12/20 01:23:31;;;;;;;4.60;4.20;;;;;;;;;;4976019;28;20447;-65
2022/12/20 01:26:00;;;;;;;4.47;4.03;;;;;;;;;;4976515;28;20442;-66
2022/12/20 01:28:28;;;;;;;8.53;4.00;;;;;;;;;;4976734;28;20450;-65
2022/12/20 01:30:55;;;;;;;4.50;3.83;;;;;;;;;;4976447;28;20808;-65
2022/12/20 01:33:22;;;;;;;4.33;3.90;;;;;;;;;;4975915;28;20444;-66
2022/12/20 01:35:56;;;;;;;5.27;3.97;;;;;;;;;;4976648;28;20477;-65
2022/12/20 01:38:24;;;;;;;3.40;3.10;;;;;;;;;;4976079;28;20536;-65
2022/12/20 01:40:52;;;;;;;4.60;3.47;;;;;;;;;;4976268;28;20851;-65
2022/12/20 01:43:20;;;;;;;4.37;3.70;;;;;;;;;;4976114;28;20541;-65
2022/12/20 01:45:47;;;;;;;7.60;3.97;;;;;;;;;;4976186;28;20998;-65
2022/12/20 01:48:15;;;;;;;4.50;3.50;;;;;;;;;;4976260;28;20437;-65
2022/12/20 01:50:43;;;;;;;4.60;3.57;;;;;;;;;;4975940;28;20849;-65
2022/12/20 01:53:10;;;;;;;6.37;3.77;;;;;;;;;;4975951;28;20545;-65
2022/12/20 01:55:37;;;;;;;3.60;3.30;;;;;;;;;;4975685;28;20446;-65
2022/12/20 01:58:06;;;;;;;3.67;3.37;;;;;;;;;;4975851;28;20965;-65
2022/12/20 02:00:36;;;;;;;4.20;3.00;;;;;;;;;;4976126;28;20445;-65
2022/12/20 02:03:05;;;;;;;4.33;3.80;;;;;;;;;;4975505;28;20519;-65
2022/12/20 02:05:35;;;;;;;5.97;3.30;;;;;;;;;;4975850;28;20484;-65
2022/12/20 02:08:02;;;;;;;5.50;3.43;;;;;;;;;;4975585;28;20515;-64
2022/12/20 02:10:34;;;;;;;5.17;3.30;;;;;;;;;;4975564;28;20463;-65
2022/12/20 02:13:06;;;;;;;11.00;3.00;;;;;;;;;;4975576;28;20546;-65
2022/12/20 02:15:41;;;;;;;4.77;3.60;;;;;;;;;;4975787;28;20533;-65
2022/12/20 02:18:14;;;;;;;3.77;3.20;;;;;;;;;;4976038;28;20453;-65
2022/12/20 02:21:08;;;;;;;4.00;3.60;;;;;;;;;;4975766;28;20440;-65
2022/12/20 02:23:44;;;;;;;4.23;3.20;;;;;;;;;;4975067;28;20425;-65
2022/12/20 02:26:20;;;;;;;4.63;3.40;;;;;;;;;;4975090;28;20473;-64
2022/12/20 02:28:58;;;;;;;3.23;2.93;;;;;;;;;;4975586;28;20444;-64
2022/12/20 02:31:29;;;;;;;3.33;3.03;;;;;;;;;;4975015;28;20442;-64
2022/12/20 02:33:58;;;;;;;4.10;2.87;;;;;;;;;;4975070;28;20464;-63
2022/12/20 02:36:25;;;;;;;3.30;2.97;;;;;;;;;;4974855;28;20444;-64
2022/12/20 02:38:54;;;;;;;5.30;3.17;;;;;;;;;;4975250;28;20480;-64
2022/12/20 02:41:23;;;;;;;3.63;3.20;;;;;;;;;;4975081;28;20456;-64
2022/12/20 02:46:38;;;;;;;4.77;3.20;;;;;;;;;;4974849;28;20410;-64
2022/12/20 02:49:10;;;;;;;3.63;3.33;;;;;;;;;;4974358;28;20537;-64
2022/12/20 02:51:37;;;;;;;4.23;3.13;;;;;;;;;;4974784;28;20435;-64
2022/12/20 02:54:05;;;;;;;4.70;3.50;;;;;;;;;;4974766;28;20445;-64
2022/12/20 02:56:34;;;;;;;6.37;3.00;;;;;;;;;;4974914;28;20534;-65
2022/12/20 02:59:03;;;;;;;3.50;3.20;;;;;;;;;;4974685;28;20528;-64
2022/12/20 03:01:32;;;;;;;3.80;2.90;;;;;;;;;;4974777;28;20847;-65
2022/12/20 03:04:01;;;;;;;5.97;3.20;;;;;;;;;;4974326;28;20561;-65
2022/12/20 03:06:29;;;;;;;4.50;4.10;;;;;;;;;;4974384;28;20466;-64
2022/12/20 03:08:56;;;;;;;5.67;3.73;;;;;;;;;;4974768;28;20445;-64
2022/12/20 03:11:24;;;;;;;3.73;3.33;;;;;;;;;;4974731;28;20454;-64
2022/12/20 03:13:51;;;;;;;4.03;3.70;;;;;;;;;;4974653;28;20457;-64
2022/12/20 03:16:18;;;;;;;5.70;4.00;;;;;;;;;;4974699;28;20446;-64
2022/12/20 03:18:46;;;;;;;3.50;3.17;;;;;;;;;;4974207;28;20450;-64
2022/12/20 03:21:15;;;;;;;7.13;3.37;;;;;;;;;;4974213;28;20970;-64
2022/12/20 03:23:42;;;;;;;3.87;3.17;;;;;;;;;;4974477;28;20445;-63
2022/12/20 03:26:09;;;;;;;3.20;2.90;;;;;;;;;;4974999;28;20489;-64
2022/12/20 03:28:36;;;;;;;3.90;3.50;;;;;;;;;;4974182;28;20947;-64
2022/12/20 03:31:04;;;;;;;4.10;3.70;;;;;;;;;;4974352;28;20450;-64
2022/12/20 03:33:31;;;;;;;3.30;3.00;;;;;;;;;;4974179;28;20576;-64
2022/12/20 03:35:58;;;;;;;6.67;3.00;;;;;;;;;;4974285;28;20466;-64
2022/12/20 03:38:27;;;;;;;4.90;3.23;;;;;;;;;;4974357;28;20811;-64
2022/12/20 03:40:54;;;;;;;4.33;3.50;;;;;;;;;;4973951;28;20450;-64
2022/12/20 03:43:21;;;;;;;3.93;3.43;;;;;;;;;;4973930;28;20954;-64
2022/12/20 03:45:48;;;;;;;5.60;4.00;;;;;;;;;;4974222;28;20477;-64
2022/12/20 03:48:15;;;;;;;4.00;3.40;;;;;;;;;;4973925;28;20481;-64
2022/12/20 03:50:43;;;;;;;4.20;3.43;;;;;;;;;;4973762;28;20466;-64
2022/12/20 03:53:10;;;;;;;3.77;3.37;;;;;;;;;;4973891;28;20978;-64
2022/12/20 03:55:38;;;;;;;3.70;3.40;;;;;;;;;;4973759;28;20537;-64
2022/12/20 03:58:06;;;;;;;4.50;4.10;;;;;;;;;;4974186;28;20781;-64
2022/12/20 04:00:33;;;;;;;4.33;3.37;;;;;;;;;;4974061;28;20471;-64
2022/12/20 04:03:00;;;;;;;3.70;3.40;;;;;;;;;;4977447;28;20517;-65
2022/12/20 04:05:27;;;;;;;3.90;3.47;;;;;;;;;;4977458;28;20500;-64
2022/12/20 04:07:55;;;;;;;4.37;3.97;;;;;;;;;;4977897;28;20446;-64
2022/12/20 04:10:22;;;;;;;3.83;3.37;;;;;;;;;;4977529;28;20447;-65
2022/12/20 04:12:50;;;;;;;4.37;3.83;;;;;;;;;;4977400;28;20453;-65
2022/12/20 04:15:18;;;;;;;4.37;3.97;;;;;;;;;;4977394;28;20452;-64
2022/12/20 04:17:45;;;;;;;3.47;2.60;;;;;;;;;;4977714;28;20446;-64
2022/12/20 04:20:21;;;;;;;3.70;3.40;;;;;;;;;;4977619;28;20446;-65
2022/12/20 04:22:49;;;;;;;4.57;4.13;;;;;;;;;;4977606;28;20909;-65
2022/12/20 04:25:16;;;;;;;3.67;3.37;;;;;;;;;;4977655;28;20477;-64
2022/12/20 04:27:44;;;;;;;4.03;3.70;;;;;;;;;;4977871;28;20927;-64
2022/12/20 04:30:13;;;;;;;3.80;3.40;;;;;;;;;;4977461;28;20468;-64
2022/12/20 04:32:40;;;;;;;4.10;3.70;;;;;;;;;;4977501;28;20482;-65
2022/12/20 04:35:08;;;;;;;5.87;4.13;;;;;;;;;;4976993;28;20934;-64
2022/12/20 04:37:35;;;;;;;7.53;3.97;;;;;;;;;;4977662;28;20445;-64
2022/12/20 04:40:02;;;;;;;5.47;4.03;;;;;;;;;;4977318;28;20473;-66
2022/12/20 04:42:29;;;;;;;4.20;3.73;;;;;;;;;;4978084;28;20990;-65
2022/12/20 04:44:56;;;;;;;4.83;3.60;;;;;;;;;;4977622;28;20476;-65
2022/12/20 04:47:25;;;;;;;4.90;3.80;;;;;;;;;;4977240;28;20451;-65
2022/12/20 04:49:52;;;;;;;4.27;3.30;;;;;;;;;;4977121;28;20541;-65
2022/12/20 04:55:04;;;;;;;4.40;3.60;;;;;;;;;;4965830;28;20571;-65
2022/12/20 04:57:31;;;;;;;6.80;4.20;;;;;;;;;;4956737;28;20449;-64
2022/12/20 04:59:58;;;;;;;4.37;3.80;;;;;;;;;;4957454;28;20459;-64
2022/12/20 05:02:27;;;;;;;5.60;3.90;;;;;;;;;;4956681;28;20949;-64
2022/12/20 05:04:54;;;;;;;7.40;4.23;;;;;;;;;;4957309;28;20486;-64
2022/12/20 05:07:22;;;;;;;3.73;3.43;;;;;;;;;;4957198;28;20478;-64
2022/12/20 05:09:49;;;;;;;4.47;4.07;;;;;;;;;;4957220;28;20447;-64
2022/12/20 05:12:16;;;;;;;4.73;3.50;;;;;;;;;;4955907;28;20461;-64
2022/12/20 05:14:43;;;;;;;4.53;3.80;;;;;;;;;;4957142;28;20461;-64
2022/12/20 05:17:10;;;;;;;4.80;4.40;;;;;;;;;;4957035;28;20504;-64
2022/12/20 05:19:39;;;;;;;5.33;4.57;;;;;;;;;;4956695;28;21003;-64
2022/12/20 05:27:35;;;;;;;4.13;3.83;;;;;;;;;;4936399;28;20427;-64
2022/12/20 05:30:03;;;;;;;4.70;4.10;;;;;;;;;;4956981;28;20538;-64
2022/12/20 05:32:30;;;;;;;4.43;3.57;;;;;;;;;;4956652;28;20484;-66
2022/12/20 05:34:59;;;;;;;5.77;4.33;;;;;;;;;;4957036;28;20462;-64
2022/12/20 05:37:26;;;;;;;4.90;4.30;;;;;;;;;;4956536;28;20788;-65
2022/12/20 05:39:53;;;;;;;5.97;4.53;;;;;;;;;;4956301;28;20537;-64
2022/12/20 05:42:20;;;;;;;6.73;3.63;;;;;;;;;;4956622;28;20493;-65
2022/12/20 05:44:47;;;;;;;4.17;3.77;;;;;;;;;;4956382;28;20454;-65
2022/12/20 05:47:15;;;;;;;8.07;3.60;;;;;;;;;;4956893;28;20477;-65
2022/12/20 05:49:42;;;;;;;13.00;3.67;;;;;;;;;;4956632;28;20456;-66
2022/12/20 05:52:11;;;;;;;5.73;4.07;;;;;;;;;;4956076;28;20478;-66
2022/12/20 05:54:38;;;;;;;4.40;4.03;;;;;;;;;;4956763;28;20454;-66
2022/12/20 05:57:05;;;;;;;4.83;4.33;;;;;;;;;;4956032;28;20455;-66
2022/12/20 05:59:33;;;;;;;6.13;3.90;;;;;;;;;;4956242;28;20443;-65
2022/12/20 06:02:00;;;;;;;4.53;4.10;;;;;;;;;;4955956;28;20912;-65
2022/12/20 06:04:27;;;;;;;4.30;3.80;;;;;;;;;;4956272;28;20581;-65
2022/12/20 06:06:54;;;;;;;6.50;3.90;;;;;;;;;;4956324;28;20569;-65
2022/12/20 06:09:23;;;;;;;5.00;4.07;;;;;;;;;;4956380;28;20534;-65
2022/12/20 06:11:50;;;;;;;4.70;4.20;;;;;;;;;;4955847;28;20456;-68
2022/12/20 06:14:17;;;;;;;5.77;4.30;;;;;;;;;;4955991;28;20456;-67
2022/12/20 06:16:45;;;;;;;8.10;4.47;;;;;;;;;;4955882;28;20450;-65
2022/12/20 06:19:13;;;;;;;4.57;4.13;;;;;;;;;;4956095;28;20537;-66
2022/12/20 06:21:40;;;;;;;8.17;4.10;;;;;;;;;;4955644;28;20463;-65
2022/12/20 06:24:07;;;;;;;7.83;4.23;;;;;;;;;;4955008;28;20493;-66
2022/12/20 06:26:36;;;;;;;4.00;3.67;;;;;;;;;;4955555;28;20481;-66
2022/12/20 06:29:05;;;;;;;5.47;4.33;;;;;;;;;;4955698;28;20443;-66
2022/12/20 06:31:33;;;;;;;6.87;4.13;;;;;;;;;;4955986;28;20443;-67
2022/12/20 06:34:00;;;;;;;8.33;4.80;;;;;;;;;;4955649;28;20470;-67
2022/12/20 06:36:27;;;;;;;6.70;4.60;;;;;;;;;;4955819;28;20458;-67
2022/12/20 06:38:54;;;;;;;5.20;4.70;;;;;;;;;;4956443;28;20445;-66
2022/12/20 06:41:22;;;;;;;5.83;5.00;;;;;;;;;;4955439;28;20457;-68
2022/12/20 06:43:50;;;;;;;5.40;4.90;;;;;;;;;;4955751;28;20440;-67
2022/12/20 06:46:17;;;;;;;5.00;4.30;;;;;;;;;;4955972;28;20475;-67
2022/12/20 06:48:45;;;;;;;4.87;4.33;;;;;;;;;;4955535;28;20461;-67
2022/12/20 06:51:12;;;;;;;4.50;4.13;;;;;;;;;;4955804;28;20442;-67
2022/12/20 06:53:39;;;;;;;6.77;4.20;;;;;;;;;;4955517;28;20537;-67
2022/12/20 06:56:06;;;;;;;5.27;4.20;;;;;;;;;;4955342;28;20456;-67
2022/12/20 06:58:34;;;;;;;4.97;4.47;;;;;;;;;;4955452;28;20498;-67
2022/12/20 07:01:02;;;;;;;7.07;5.00;;;;;;;;;;4955640;28;20455;-66
2022/12/20 07:03:29;;;;;;;7.80;5.23;;;;;;;;;;4955138;28;20473;-66
2022/12/20 07:05:57;;;;;;;4.60;4.20;;;;;;;;;;4955871;28;20486;-66
2022/12/20 07:08:24;;;;;;;6.80;4.50;;;;;;;;;;4954991;28;20533;-66
2022/12/20 07:10:53;;;;;;;5.40;5.00;;;;;;;;;;4955725;28;20518;-66
2022/12/20 07:13:20;;;;;;;5.87;4.60;;;;;;;;;;4955025;28;21006;-66
2022/12/20 07:15:47;;;;;;;7.60;5.43;;;;;;;;;;4955377;28;20447;-66
2022/12/20 07:18:16;;;;;;;5.30;4.80;;;;;;;;;;4955517;28;20856;-66
2022/12/20 07:20:43;;;;;;;8.13;5.73;;;;;;;;;;4955457;28;20439;-66
2022/12/20 07:23:11;;;;;;;6.70;5.17;;;;;;;;;;4955129;28;20467;-66
2022/12/20 07:25:38;;;;;;;7.93;5.47;;;;;;;;;;4955079;28;20917;-67
2022/12/20 07:28:05;;;;;;;5.67;5.17;;;;;;;;;;4955523;28;20461;-66
2022/12/20 07:30:33;;;;;;;5.70;4.70;;;;;;;;;;4954829;28;20516;-66
2022/12/20 07:33:00;;;;;;;6.47;5.20;;;;;;;;;;4954990;28;20445;-66
2022/12/20 07:35:28;;;;;;;8.27;5.43;;;;;;;;;;4956457;28;20465;-67
2022/12/20 07:37:55;;;;;;;6.13;4.90;;;;;;;;;;4961332;28;20456;-67
2022/12/20 07:40:23;;;;;;;6.97;5.80;;;;;;;;;;4961169;28;21015;-67
2022/12/20 07:42:50;;;;;;;9.83;7.10;;;;;;;;;;4961024;28;20444;-66
2022/12/20 07:45:17;;;;;;;7.60;5.00;;;;;;;;;;4961187;28;20472;-66
2022/12/20 07:47:44;;;;;;;4.77;4.37;;;;;;;;;;4961400;28;20497;-67
2022/12/20 07:50:12;;;;;;;6.13;5.00;;;;;;;;;;4961049;28;20947;-66
2022/12/20 07:52:42;;;;;;;4.90;3.93;;;;;;;;;;4961331;28;20442;-66
2022/12/20 07:55:10;;;;;;;8.23;4.93;;;;;;;;;;4961425;28;20438;-66
2022/12/20 07:57:40;;;;;;;4.43;4.00;;;;;;;;;;4961139;28;20455;-66
2022/12/20 08:00:09;;;;;;;5.70;5.07;;;;;;;;;;4961033;28;20446;-66
2022/12/20 08:02:38;;;;;;;5.90;5.30;;;;;;;;;;4960710;28;20451;-66
2022/12/20 08:05:06;;;;;;;4.70;4.30;;;;;;;;;;4960951;28;20557;-66
2022/12/20 08:07:33;;;;;;;5.87;4.57;;;;;;;;;;4961391;28;20494;-67
2022/12/20 08:10:02;;;;;;;5.23;4.67;;;;;;;;;;4961571;28;20455;-67
2022/12/20 08:12:30;;;;;;;5.20;3.80;;;;;;;;;;4961124;28;20530;-66
2022/12/20 08:14:58;;;;;;;5.13;4.50;;;;;;;;;;4960971;28;20954;-66
2022/12/20 08:17:25;;;;;;;8.37;4.20;;;;;;;;;;4961136;28;20454;-66
2022/12/20 08:19:52;;;;;;;6.40;4.60;;;;;;;;;;4960992;28;20451;-66
2022/12/20 08:22:20;;;;;;;6.47;4.67;;;;;;;;;;4960838;28;20449;-66
2022/12/20 08:24:47;;;;;;;6.13;4.47;;;;;;;;;;4960581;28;21008;-66
2022/12/20 08:27:16;;;;;;;4.87;3.73;;;;;;;;;;4960587;28;20484;-66
2022/12/20 08:29:43;;;;;;;8.60;4.30;;;;;;;;;;4960565;28;20453;-67
2022/12/20 08:32:11;;;;;;;5.90;4.00;;;;;;;;;;4960656;28;20442;-67
2022/12/20 08:34:39;;;;;;;4.77;4.30;;;;;;;;;;4960626;28;20561;-66
2022/12/20 08:37:06;;;;;;;9.50;4.67;;;;;;;;;;4960889;28;20481;-65
2022/12/20 08:39:33;;;;;;;6.17;4.40;;;;;;;;;;4960684;28;20446;-66
2022/12/20 08:42:00;;;;;;;7.80;4.50;;;;;;;;;;4960770;28;20792;-66
2022/12/20 08:44:29;;;;;;;6.93;4.77;;;;;;;;;;4961001;28;20453;-66
2022/12/20 08:46:56;;;;;;;5.73;4.03;;;;;;;;;;4959537;28;20911;-66
2022/12/20 08:49:23;;;;;;;5.60;4.30;;;;;;;;;;4957100;28;20448;-66
2022/12/20 08:51:51;;;;;;;4.80;4.40;;;;;;;;;;4957902;28;20986;-67
2022/12/20 08:54:18;;;;;;;5.33;4.30;;;;;;;;;;4957557;28;20444;-66
2022/12/20 08:56:45;;;;;;;4.10;3.70;;;;;;;;;;4957298;28;20486;-66
2022/12/20 08:59:12;;;;;;;5.80;3.30;;;;;;;;;;4957021;28;20451;-66
2022/12/20 09:01:41;;;;;;;3.77;3.37;;;;;;;;;;4957173;28;20555;-66
2022/12/20 09:04:11;;;;;;;4.60;3.43;;;;;;;;;;4957400;28;20481;-66
2022/12/20 09:06:38;;;;;;;5.63;4.40;;;;;;;;;;4957038;28;20563;-66
2022/12/20 09:09:06;;;;;;;4.47;3.87;;;;;;;;;;4957081;28;20438;-66
2022/12/20 09:11:34;;;;;;;10.80;4.67;;;;;;;;;;4957372;28;20446;-66
2022/12/20 09:14:01;;;;;;;7.33;5.27;;;;;;;;;;4957197;28;20506;-66
2022/12/20 09:16:29;;;;;;;6.40;4.53;;;;;;;;;;4957072;28;20491;-66
2022/12/20 09:18:59;;;;;;;6.80;4.83;;;;;;;;;;4957163;28;20443;-66
2022/12/20 09:21:26;;;;;;;5.93;3.70;;;;;;;;;;4957257;28;20475;-66
2022/12/20 09:23:54;;;;;;;6.10;4.70;;;;;;;;;;4957495;28;20462;-66
2022/12/20 09:26:22;;;;;;;3.80;3.37;;;;;;;;;;4956695;28;20511;-66
2022/12/20 09:28:50;;;;;;;4.03;3.63;;;;;;;;;;4956692;28;20454;-66
2022/12/20 09:31:18;;;;;;;4.50;3.33;;;;;;;;;;4957524;28;20449;-66
2022/12/20 09:33:46;;;;;;;7.00;4.40;;;;;;;;;;4957400;28;20448;-65
2022/12/20 09:36:16;;;;;;;6.23;4.00;;;;;;;;;;4956883;28;20466;-66
2022/12/20 09:38:43;;;;;;;4.70;3.30;;;;;;;;;;4956819;28;20543;-66
2022/12/20 09:41:19;;;;;;;5.63;3.60;;;;;;;;;;4956937;28;20454;-66
2022/12/20 09:43:47;;;;;;;4.37;3.23;;;;;;;;;;4956584;28;20467;-66
2022/12/20 09:46:15;;;;;;;4.20;3.80;;;;;;;;;;4956726;28;20919;-66
2022/12/20 09:48:43;;;;;;;3.70;3.40;;;;;;;;;;4956650;28;20470;-66
2022/12/20 09:51:15;;;;;;;4.93;3.43;;;;;;;;;;4956815;28;20501;-66
2022/12/20 09:53:49;;;;;;;3.57;3.27;;;;;;;;;;4957135;28;20451;-66
2022/12/20 09:56:18;;;;;;;8.20;3.73;;;;;;;;;;4956607;28;20428;-66
2022/12/20 09:58:57;;;;;;;4.37;3.63;;;;;;;;;;4955953;28;20539;-66
2022/12/20 10:01:26;;;;;;;4.90;3.40;;;;;;;;;;4956368;28;20432;-66
2022/12/20 10:03:54;;;;;;;5.27;3.53;;;;;;;;;;4955887;28;20557;-67
2022/12/20 10:06:27;;;;;;;5.30;3.87;;;;;;;;;;4956286;28;20484;-66
2022/12/20 10:08:57;;;;;;;5.33;3.00;;;;;;;;;;4956583;28;20441;-66
2022/12/20 10:11:35;;;;;;;4.10;3.27;;;;;;;;;;4956421;28;20459;-65
2022/12/20 10:14:08;;;;;;;12.60;3.07;;;;;;;;;;4956229;28;20448;-66
2022/12/20 10:16:41;;;;;;;4.83;3.10;;;;;;;;;;4956209;28;20518;-65
2022/12/20 10:19:26;;;;;;;5.53;4.03;;;;;;;;;;4956542;28;20435;-66
2022/12/20 10:21:56;;;;;;;6.50;4.10;;;;;;;;;;4955787;28;20441;-66
2022/12/20 10:24:29;;;;;;;4.10;3.73;;;;;;;;;;4955949;28;20456;-66
2022/12/20 10:26:56;;;;;;;6.80;3.60;;;;;;;;;;4956160;28;20491;-66
2022/12/20 10:29:24;;;;;;;3.80;3.50;;;;;;;;;;4956097;28;20796;-67
2022/12/20 10:31:53;;;;;;;5.80;3.20;;;;;;;;;;4955997;28;20459;-67
2022/12/20 10:34:20;;;;;;;3.70;3.30;;;;;;;;;;4955799;28;20828;-66
2022/12/20 10:36:50;;;;;;;4.33;3.10;;;;;;;;;;4955426;28;20502;-66
2022/12/20 10:39:17;;;;;;;5.77;3.30;;;;;;;;;;4955442;28;20949;-66
2022/12/20 10:41:50;;;;;;;5.50;3.40;;;;;;;;;;4955720;28;20475;-67
2022/12/20 10:44:19;;;;;;;4.00;2.80;;;;;;;;;;4955961;28;20458;-66
2022/12/20 10:46:48;;;;;;;4.00;3.20;;;;;;;;;;4955491;28;20507;-66
2022/12/20 10:49:23;;;;;;;2.70;2.30;;;;;;;;;;4955641;28;20445;-66
2022/12/20 10:51:52;;;;;;;3.03;2.73;;;;;;;;;;4955447;28;20447;-66
2022/12/20 10:54:22;;;;;;;11.20;3.60;;;;;;;;;;4955286;28;20933;-66
2022/12/20 10:56:56;;;;;;;5.83;3.30;;;;;;;;;;4955202;28;20453;-66
2022/12/20 10:59:29;;;;;;;4.93;3.13;;;;;;;;;;4956277;28;20465;-67
2022/12/20 11:01:56;;;;;;;5.80;3.30;;;;;;;;;;4955181;28;20440;-66
2022/12/20 11:04:26;;;;;;;5.47;3.33;;;;;;;;;;4955682;28;20483;-67
2022/12/20 11:06:54;;;;;;;4.00;3.40;;;;;;;;;;4954955;28;20480;-67
2022/12/20 11:09:26;;;;;;;3.97;3.60;;;;;;;;;;4955877;28;20818;-67
2022/12/20 11:11:59;;;;;;;11.23;3.70;;;;;;;;;;4954726;28;20445;-66
2022/12/20 11:14:27;;;;;;;5.87;3.90;;;;;;;;;;4955583;28;20788;-66
2022/12/20 11:16:56;;;;;;;5.70;4.00;;;;;;;;;;4954814;28;20518;-66
2022/12/20 11:19:30;;;;;;;3.20;3.00;;;;;;;;;;4954972;28;20445;-67
2022/12/20 11:22:00;;;;;;;3.97;3.67;;;;;;;;;;4955259;28;20434;-67
2022/12/20 11:24:32;;;;;;;9.40;3.80;;;;;;;;;;4955350;28;20447;-66
2022/12/20 11:27:08;;;;;;;4.73;4.00;;;;;;;;;;4954670;28;20566;-67
2022/12/20 11:29:43;;;;;;;8.40;4.10;;;;;;;;;;4955078;28;20487;-67
2022/12/20 11:32:17;;;;;;;4.30;3.67;;;;;;;;;;4954923;28;20426;-66
2022/12/20 11:34:47;;;;;;;6.57;3.57;;;;;;;;;;4955290;28;20462;-66
2022/12/20 11:37:19;;;;;;;5.40;3.80;;;;;;;;;;4954873;28;20490;-66
2022/12/20 11:39:54;;;;;;;6.10;3.80;;;;;;;;;;4954754;28;20454;-66
2022/12/20 11:42:27;;;;;;;5.30;3.47;;;;;;;;;;4954926;28;20439;-65
2022/12/20 11:44:59;;;;;;;5.77;4.93;;;;;;;;;;4954705;28;20432;-66
2022/12/20 11:47:33;;;;;;;5.30;4.27;;;;;;;;;;4954964;28;20477;-65
2022/12/20 11:50:10;;;;;;;4.03;2.80;;;;;;;;;;4955352;28;20893;-66
2022/12/20 11:52:39;;;;;;;3.90;3.40;;;;;;;;;;4954721;28;20423;-65
2022/12/20 11:55:08;;;;;;;6.03;3.23;;;;;;;;;;4954993;28;20879;-66
2022/12/20 11:57:41;;;;;;;8.00;3.67;;;;;;;;;;4954591;28;21040;-66
2022/12/20 12:00:13;;;;;;;4.60;3.07;;;;;;;;;;4955349;28;20514;-66
2022/12/20 12:02:43;;;;;;;3.20;2.93;;;;;;;;;;4954778;28;20467;-65
2022/12/20 12:05:17;;;;;;;3.47;3.00;;;;;;;;;;4955264;28;20466;-65
2022/12/20 12:07:48;;;;;;;7.23;3.50;;;;;;;;;;4954403;28;20463;-65
2022/12/20 12:10:18;;;;;;;4.20;3.60;;;;;;;;;;4954522;28;20449;-65
2022/12/20 12:12:47;;;;;;;4.20;3.60;;;;;;;;;;4954709;28;20444;-66
2022/12/20 12:15:20;;;;;;;5.57;3.43;;;;;;;;;;4954763;28;20451;-66
2022/12/20 12:17:49;;;;;;;6.43;3.90;;;;;;;;;;4954701;28;20452;-65
2022/12/20 12:20:22;;;;;;;6.27;3.47;;;;;;;;;;4954958;28;20444;-66
2022/12/20 12:22:51;;;;;;;5.10;4.00;;;;;;;;;;4955449;28;20443;-66
2022/12/20 12:25:19;;;;;;;4.00;3.17;;;;;;;;;;4958235;28;20456;-66
2022/12/20 12:27:47;;;;;;;4.37;3.57;;;;;;;;;;4958208;28;20486;-66
2022/12/20 12:30:15;;;;;;;3.73;3.03;;;;;;;;;;4958294;28;20452;-65
2022/12/20 12:32:45;;;;;;;4.27;3.17;;;;;;;;;;4957893;28;21037;-65
2022/12/20 12:35:24;;;;;;;4.20;3.47;;;;;;;;;;4957933;28;20458;-66
2022/12/20 12:37:56;;;;;;;10.20;3.50;;;;;;;;;;4958146;28;20533;-65
2022/12/20 12:40:38;;;;;;;2.80;2.60;;;;;;;;;;4958735;28;20526;-65
2022/12/20 12:43:20;;;;;;;6.90;3.37;;;;;;;;;;4956259;28;20470;-65
2022/12/20 12:45:49;;;;;;;6.17;3.57;;;;;;;;;;4958425;28;20518;-66
2022/12/20 12:48:19;;;;;;;3.40;3.20;;;;;;;;;;4958115;28;20483;-66
2022/12/20 12:50:47;;;;;;;4.70;3.00;;;;;;;;;;4958329;28;20435;-66
2022/12/20 12:53:16;;;;;;;3.53;2.87;;;;;;;;;;4957619;28;20452;-65
2022/12/20 12:55:45;;;;;;;6.07;3.43;;;;;;;;;;4957660;28;20457;-66
2022/12/20 12:58:33;;;;;;;6.50;3.20;;;;;;;;;;4957669;28;20455;-65
2022/12/20 13:01:01;;;;;;;8.40;3.40;;;;;;;;;;4957948;28;20781;-65
2022/12/20 13:03:46;;;;;;;3.33;2.90;;;;;;;;;;4957254;28;20567;-66
2022/12/20 13:06:34;;;;;;;3.87;3.53;;;;;;;;;;4957619;28;20454;-66
2022/12/20 13:09:12;;;;;;;5.60;4.00;;;;;;;;;;4957437;28;20483;-66
2022/12/20 13:11:40;;;;;;;4.00;3.03;;;;;;;;;;4957293;28;20450;-65
2022/12/20 13:14:37;;;;;;;6.03;3.57;;;;;;;;;;4957094;28;20450;-66
2022/12/20 13:17:19;;;;;;;4.70;3.90;;;;;;;;;;4957468;28;20922;-66
2022/12/20 13:19:51;;;;;;;7.17;3.63;;;;;;;;;;4957372;29;20449;-66
2022/12/20 13:22:21;;;;;;;4.03;3.70;;;;;;;;;;4957047;28;20440;-66
2022/12/20 13:24:54;;;;;;;5.73;3.20;;;;;;;;;;4957768;28;20444;-66
2022/12/20 13:27:29;;;;;;;7.17;3.70;;;;;;;;;;4957299;28;20492;-66
2022/12/20 13:29:59;;;;;;;3.93;3.17;;;;;;;;;;4956845;28;20557;-66
2022/12/20 13:33:00;;;;;;;9.30;4.03;;;;;;;;;;4957210;28;20435;-66
2022/12/20 13:35:31;;;;;;;4.77;4.03;;;;;;;;;;4897873;29;20526;-66
2022/12/20 13:38:01;;;;;;;4.40;4.00;;;;;;;;;;4897711;29;21065;-66
2022/12/20 13:40:33;;;;;;;6.07;4.47;;;;;;;;;;4926693;28;20448;-66
2022/12/20 13:43:03;;;;;;;9.70;5.00;;;;;;;;;;4957065;28;20527;-65
2022/12/20 13:45:31;;;;;;;7.90;4.07;;;;;;;;;;4956490;28;20533;-65
2022/12/20 13:48:00;;;;;;;3.90;3.53;;;;;;;;;;4956511;28;20489;-65
2022/12/20 13:50:34;;;;;;;11.43;4.33;;;;;;;;;;4956896;28;20851;-64
2022/12/20 13:53:02;;;;;;;13.63;3.97;;;;;;;;;;4957044;28;20466;-64
2022/12/20 13:55:37;;;;;;;9.70;5.37;;;;;;;;;;4956947;28;20526;-65
2022/12/20 13:58:06;;;;;;;6.43;4.40;;;;;;;;;;4957036;28;20931;-64
2022/12/20 14:00:35;;;;;;;6.67;5.07;;;;;;;;;;4964062;28;20445;-65
2022/12/20 14:03:02;;;;;;;4.07;3.77;;;;;;;;;;4975516;28;20470;-64
2022/12/20 14:05:33;;;;;;;7.03;4.20;;;;;;;;;;4975458;28;20441;-64
2022/12/20 14:08:01;;;;;;;10.90;4.10;;;;;;;;;;4975801;28;20560;-64
2022/12/20 14:10:30;;;;;;;5.77;4.70;;;;;;;;;;4963851;28;20957;-64
2022/12/20 14:12:57;;;;;;;6.90;4.37;;;;;;;;;;4955794;28;20570;-64
2022/12/20 14:15:26;;;;;;;5.53;4.03;;;;;;;;;;4955692;28;20473;-65
2022/12/20 14:17:55;;;;;;;4.57;3.57;;;;;;;;;;4955599;28;20801;-64
2022/12/20 14:20:24;;;;;;;6.50;4.40;;;;;;;;;;4955912;28;20454;-65
2022/12/20 14:22:55;;;;;;;4.17;3.77;;;;;;;;;;4955667;28;20446;-64
2022/12/20 14:25:27;;;;;;;5.67;4.23;;;;;;;;;;4955443;28;20472;-65
2022/12/20 14:27:54;;;;;;;5.50;4.17;;;;;;;;;;4955316;28;21314;-65
2022/12/20 14:30:29;;;;;;;4.77;3.77;;;;;;;;;;4955727;28;20447;-65
2022/12/20 14:32:58;;;;;;;4.30;3.53;;;;;;;;;;4955692;28;20452;-65
2022/12/20 14:35:25;;;;;;;6.03;3.07;;;;;;;;;;4955896;28;20542;-69
2022/12/20 14:37:54;;;;;;;6.80;3.47;;;;;;;;;;4955711;28;20485;-66
2022/12/20 14:40:21;;;;;;;10.40;4.10;;;;;;;;;;4954453;28;20939;-70
2022/12/20 14:42:49;;;;;;;7.80;4.53;;;;;;;;;;4954855;28;20526;-68
2022/12/20 14:45:24;;;;;;;4.17;3.77;;;;;;;;;;4953907;28;20944;-67
2022/12/20 14:47:55;;;;;;;5.10;4.23;;;;;;;;;;4954642;28;20443;-67
2022/12/20 14:50:26;;;;;;;6.73;4.07;;;;;;;;;;4955010;28;20513;-66
2022/12/20 14:52:53;;;;;;;7.63;4.33;;;;;;;;;;4954784;28;20430;-66
2022/12/20 14:55:23;;;;;;;7.33;5.00;;;;;;;;;;4955240;28;20537;-66
2022/12/20 14:57:52;;;;;;;7.00;4.83;;;;;;;;;;4955182;28;20466;-66
2022/12/20 15:00:24;;;;;;;5.80;5.30;;;;;;;;;;4955284;28;20473;-66
2022/12/20 15:02:53;;;;;;;6.67;5.40;;;;;;;;;;4955308;28;20476;-65
2022/12/20 15:05:39;;;;;;;7.10;4.87;;;;;;;;;;4955540;28;20466;-65
2022/12/20 15:08:13;;;;;;;6.93;5.17;;;;;;;;;;4955089;28;20829;-66